Time;durP1;ratioP1;P1;durP2;ratioP2;P2;SDS_P1;SDS_P2;PMS_P1;PMS_P2;Temp;Humidity;BMP_temperature;BMP_pressure;BME280_temperature;BME280_humidity;BME280_pressure;Samples;Min_cycle;Max_cycle;Signal;HPM_P1;HPM_P2
2021/01/22 00:03:05;;;;;;;116.90;47.90;;;;;;;-3.01;84.04;97910.97;4411736;78;21167;-92
2021/01/22 00:09:07;;;;;;;113.73;43.67;;;;;;;-3.07;84.09;97906.88;4394092;79;21664;-92
2021/01/22 00:15:09;;;;;;;91.63;40.20;;;;;;;-3.19;84.09;97891.95;4405903;79;21186;-93
2021/01/22 00:21:11;;;;;;;110.90;42.30;;;;;;;-3.21;84.18;97872.19;4405782;79;21162;-93
2021/01/22 00:27:12;;;;;;;121.00;44.77;;;;;;;-3.15;84.43;97864.02;4402847;79;21170;-92
2021/01/22 00:33:14;;;;;;;135.43;49.90;;;;;;;-3.15;84.40;97858.66;4374733;80;21210;-92
2021/01/22 00:39:16;;;;;;;98.67;37.43;;;;;;;-3.18;84.57;97849.38;4388900;80;21576;-92
2021/01/22 00:45:18;;;;;;;98.70;36.50;;;;;;;-3.29;84.00;97852.89;4358946;80;21183;-92
2021/01/22 00:51:19;;;;;;;114.83;42.57;;;;;;;-3.40;84.32;97846.83;4342951;79;21147;-92
2021/01/22 00:57:21;;;;;;;127.90;52.07;;;;;;;-3.33;84.53;97839.91;4421266;79;21157;-93
2021/01/22 01:03:24;;;;;;;117.20;47.77;;;;;;;-3.38;84.67;97831.23;4347648;80;21959;-93
2021/01/22 01:09:26;;;;;;;118.20;46.50;;;;;;;-3.33;84.89;97817.16;4409077;79;21139;-93
2021/01/22 01:15:38;;;;;;;112.60;48.97;;;;;;;-3.24;85.04;97810.47;4585483;76;22938;-91
2021/01/22 01:21:40;;;;;;;115.63;51.93;;;;;;;-3.26;85.44;97814.79;4501430;78;21152;-93
2021/01/22 01:27:41;;;;;;;110.77;47.40;;;;;;;-3.01;85.96;97802.54;4491296;79;21152;-93
2021/01/22 01:33:43;;;;;;;123.67;56.30;;;;;;;-2.94;85.42;97804.17;4497264;78;21120;-93
2021/01/22 01:39:45;;;;;;;138.37;57.30;;;;;;;-2.94;85.99;97788.68;4490093;78;21286;-92
2021/01/22 01:45:46;;;;;;;132.93;60.37;;;;;;;-2.77;86.21;97781.96;4490389;78;21134;-93
2021/01/22 01:51:48;;;;;;;131.27;58.03;;;;;;;-2.56;86.28;97775.61;4496613;78;21132;-93
2021/01/22 01:57:49;;;;;;;139.70;60.10;;;;;;;-2.34;86.98;97761.98;4490769;79;21145;-94
2021/01/22 02:03:51;;;;;;;117.33;51.07;;;;;;;-2.09;86.70;97747.69;4476688;78;21156;-93
2021/01/22 02:09:53;;;;;;;130.30;59.60;;;;;;;-2.18;86.29;97746.95;4488682;79;21104;-93
2021/01/22 02:15:55;;;;;;;120.97;52.73;;;;;;;-2.08;87.00;97733.71;4460648;78;21384;-92
2021/01/22 02:21:57;;;;;;;109.13;49.17;;;;;;;-1.88;87.17;97731.08;4484042;78;21136;-93
2021/01/22 02:27:59;;;;;;;99.80;44.63;;;;;;;-1.76;86.90;97715.09;4446553;79;21140;-93
2021/01/22 02:34:06;;;;;;;100.00;44.67;;;;;;;-1.65;87.02;97694.02;4457000;78;21135;-92
2021/01/22 02:40:10;;;;;;;98.73;43.17;;;;;;;-1.54;87.28;97691.17;4457663;80;21120;-92
2021/01/22 02:46:12;;;;;;;90.40;41.27;;;;;;;-1.44;86.83;97687.31;4457872;78;21132;-91
2021/01/22 02:52:13;;;;;;;96.23;42.50;;;;;;;-1.53;86.60;97672.61;4459079;78;21174;-93
2021/01/22 02:58:33;;;;;;;99.20;42.57;;;;;;;-1.56;87.18;97669.23;4440496;80;21404;-92
2021/01/22 03:04:36;;;;;;;99.37;44.77;;;;;;;-1.57;87.40;97674.39;4456558;78;21136;-92
2021/01/22 03:10:39;;;;;;;100.73;43.47;;;;;;;-1.45;88.03;97654.31;4461289;79;21628;-93
2021/01/22 03:16:40;;;;;;;113.00;51.10;;;;;;;-1.24;87.72;97651.59;4493557;79;21172;-92
2021/01/22 03:22:42;;;;;;;104.77;46.37;;;;;;;-0.99;87.92;97653.24;4488667;78;21599;-93
2021/01/22 03:28:43;;;;;;;94.03;42.03;;;;;;;-1.11;87.42;97644.58;4494893;78;21615;-93
2021/01/22 03:34:45;;;;;;;98.73;45.37;;;;;;;-0.97;88.01;97650.44;4491507;78;21157;-93
2021/01/22 03:40:46;;;;;;;88.77;40.63;;;;;;;-0.83;87.92;97639.41;4495824;77;21133;-92
2021/01/22 03:46:48;;;;;;;93.73;39.80;;;;;;;-0.87;87.38;97635.25;4487628;78;21148;-94
2021/01/22 03:52:53;;;;;;;93.77;41.80;;;;;;;-0.90;87.77;97631.89;4491647;78;21106;-93
2021/01/22 03:58:55;;;;;;;78.60;35.53;;;;;;;-0.81;87.78;97618.34;4486193;78;21152;-92
2021/01/22 04:04:56;;;;;;;101.17;44.53;;;;;;;-0.79;87.65;97618.25;4494575;78;21145;-92
2021/01/22 04:10:58;;;;;;;100.17;43.73;;;;;;;-0.93;87.91;97610.27;4494807;78;21613;-92
2021/01/22 04:16:59;;;;;;;95.73;44.70;;;;;;;-0.92;87.94;97603.22;4481281;78;21630;-93
2021/01/22 04:23:01;;;;;;;87.97;41.73;;;;;;;-0.92;88.02;97583.08;4482351;79;21558;-92
2021/01/22 04:29:02;;;;;;;83.63;40.23;;;;;;;-0.81;88.07;97599.53;4493723;78;21489;-92
2021/01/22 04:35:05;;;;;;;82.60;37.17;;;;;;;-0.79;87.93;97600.78;4469709;78;21697;-91
2021/01/22 04:41:07;;;;;;;86.93;40.70;;;;;;;-1.03;87.46;97612.03;4492255;79;21140;-92
2021/01/22 04:47:09;;;;;;;82.77;37.20;;;;;;;-1.08;87.85;97602.88;4493703;78;21133;-93
2021/01/22 04:53:11;;;;;;;90.53;42.03;;;;;;;-1.21;87.47;97594.55;4477878;79;21140;-92
2021/01/22 04:59:22;;;;;;;94.10;42.53;;;;;;;-1.28;87.88;97580.32;4493183;78;21121;-92
2021/01/22 05:05:24;;;;;;;90.47;41.13;;;;;;;-1.18;88.54;97591.20;4479811;78;21722;-92
2021/01/22 05:11:27;;;;;;;80.27;35.17;;;;;;;-1.21;88.21;97565.02;4481975;78;21140;-94
2021/01/22 05:17:29;;;;;;;83.93;35.83;;;;;;;-1.15;88.75;97559.65;4447653;79;21685;-92
2021/01/22 05:23:37;;;;;;;70.57;33.97;;;;;;;-1.24;88.68;97550.91;4435470;79;21134;-92
2021/01/22 05:29:41;;;;;;;81.30;35.47;;;;;;;-1.31;88.60;97555.48;4403971;80;21128;-92
2021/01/22 05:35:43;;;;;;;65.47;30.03;;;;;;;-1.26;88.63;97560.64;4428815;78;21125;-93
2021/01/22 05:41:51;;;;;;;67.20;32.43;;;;;;;-1.16;88.78;97549.45;4435204;80;21169;-92
2021/01/22 05:47:53;;;;;;;73.50;34.20;;;;;;;-1.09;88.97;97547.02;4442080;78;21134;-92
2021/01/22 05:53:55;;;;;;;78.77;36.87;;;;;;;-0.85;89.47;97538.20;4447195;78;21106;-93
2021/01/22 06:00:14;;;;;;;75.70;35.37;;;;;;;-0.79;89.11;97518.05;4450801;78;22516;-93
2021/01/22 06:06:17;;;;;;;79.77;36.07;;;;;;;-0.73;89.21;97519.38;4431236;78;21185;-94
2021/01/22 06:12:19;;;;;;;75.50;34.27;;;;;;;-0.68;89.19;97518.61;4439721;79;21599;-93
2021/01/22 06:18:29;;;;;;;68.30;28.47;;;;;;;-0.53;89.54;97525.19;4441853;79;21149;-92
2021/01/22 06:24:31;;;;;;;62.70;26.00;;;;;;;-0.33;89.68;97526.38;4432429;79;21908;-92
2021/01/22 06:30:35;;;;;;;69.53;28.73;;;;;;;-0.17;89.97;97527.80;4423026;79;21141;-92
2021/01/22 06:36:38;;;;;;;61.60;27.00;;;;;;;-0.03;89.93;97506.14;4444971;79;21165;-93
2021/01/22 06:42:40;;;;;;;62.57;27.73;;;;;;;0.07;89.72;97511.59;4435009;79;21497;-92
2021/01/22 06:49:03;;;;;;;73.27;31.43;;;;;;;-0.10;89.10;97492.50;4430426;78;21131;-93
2021/01/22 06:55:06;;;;;;;89.57;36.97;;;;;;;-0.10;89.73;97505.16;4436807;79;21137;-93
2021/01/22 07:01:13;;;;;;;79.40;32.53;;;;;;;0.25;90.42;97498.05;4436838;79;21138;-92
2021/01/22 07:07:21;;;;;;;59.97;24.57;;;;;;;0.63;90.08;97505.59;4429295;79;21172;-91
2021/01/22 07:13:39;;;;;;;60.03;25.30;;;;;;;0.89;90.15;97511.28;4423854;80;21133;-93
2021/01/22 07:19:54;;;;;;;62.50;24.40;;;;;;;1.12;90.26;97511.67;4434038;79;21543;-94
2021/01/22 07:25:56;;;;;;;62.88;28.38;;;;;;;1.30;89.88;97503.42;4440825;79;21432;-92
2021/01/22 07:32:04;;;;;;;66.77;30.40;;;;;;;1.41;90.18;97514.44;4407547;80;21426;-91
2021/01/22 07:38:05;;;;;;;68.12;29.75;;;;;;;1.43;89.82;97508.93;4407837;78;21169;-92
2021/01/22 07:44:07;;;;;;;44.60;20.70;;;;;;;1.44;89.64;97504.33;4433016;79;21516;-92
2021/01/22 07:50:19;;;;;;;17.80;9.38;;;;;;;2.43;90.88;97463.37;4434616;80;21663;-93
2021/01/22 07:56:21;;;;;;;12.07;6.60;;;;;;;2.43;90.88;97463.37;4434500;80;21152;-93
2021/01/22 08:02:24;;;;;;;9.13;4.25;;;;;;;3.55;89.95;97484.72;4422907;79;21122;-93
2021/01/22 08:08:27;;;;;;;8.88;4.40;;;;;;;4.32;88.50;97487.65;4368554;81;21164;-92
2021/01/22 08:14:30;;;;;;;12.82;4.78;;;;;;;5.32;86.25;97478.14;4390259;81;21173;-92
2021/01/22 08:27:04;;;;;;;23.73;12.50;;;;;;;6.13;84.09;97487.57;4601355;76;22953;-93
2021/01/22 08:33:06;;;;;;;11.18;4.17;;;;;;;6.21;84.57;97495.17;4487842;78;21116;-92
2021/01/22 08:39:08;;;;;;;8.55;4.22;;;;;;;6.20;84.99;97491.66;4489837;78;21089;-92
2021/01/22 08:45:10;;;;;;;10.72;4.10;;;;;;;6.22;84.75;97486.63;4495354;78;21180;-93
2021/01/22 08:51:12;;;;;;;11.40;4.45;;;;;;;6.23;84.37;97506.44;4493146;78;21109;-92
2021/01/22 08:57:14;;;;;;;11.55;4.37;;;;;;;6.02;84.15;97522.63;4475787;78;21156;-93
2021/01/22 09:03:23;;;;;;;9.95;3.27;;;;;;;6.12;82.15;97507.73;4492312;78;21139;-92
2021/01/22 09:09:49;;;;;;;10.23;2.75;;;;;;;6.56;82.93;97512.19;4485603;78;22152;-91
2021/01/22 09:16:03;;;;;;;7.70;3.15;;;;;;;6.89;82.77;97499.64;4490719;78;21164;-92
2021/01/22 09:22:05;;;;;;;9.40;3.02;;;;;;;7.26;83.00;97503.58;4495156;78;21144;-92
2021/01/22 09:28:06;;;;;;;6.45;3.12;;;;;;;8.34;77.68;97508.66;4491143;78;21155;-93
2021/01/22 09:34:07;;;;;;;5.40;3.55;;;;;;;9.22;80.74;97498.00;4487710;78;21167;-92
2021/01/22 09:40:11;;;;;;;5.90;2.70;;;;;;;9.53;75.70;97506.56;4483996;78;21566;-92
2021/01/22 09:46:12;;;;;;;6.72;2.50;;;;;;;9.53;77.40;97511.23;4492690;78;21552;-91
2021/01/22 09:52:14;;;;;;;7.55;3.10;;;;;;;9.70;77.03;97511.67;4486131;78;21088;-92
2021/01/22 09:58:16;;;;;;;6.17;2.92;;;;;;;9.61;75.99;97503.75;4385406;80;21156;-91
2021/01/22 10:04:18;;;;;;;8.18;2.58;;;;;;;9.53;76.17;97505.20;4348757;80;21146;-90
2021/01/22 10:10:20;;;;;;;4.95;2.90;;;;;;;9.80;71.44;97507.29;4351090;80;21181;-91
2021/01/22 10:16:26;;;;;;;5.10;2.17;;;;;;;10.16;70.98;97520.81;4352280;80;21194;-91
2021/01/22 10:22:28;;;;;;;6.80;2.27;;;;;;;10.51;72.06;97509.45;4350124;80;21190;-91
2021/01/22 10:28:29;;;;;;;5.17;2.25;;;;;;;11.00;71.40;97511.55;4349352;80;21182;-88
2021/01/22 10:34:31;;;;;;;7.72;2.72;;;;;;;11.53;66.27;97511.52;4348496;80;21185;-92
2021/01/22 10:40:32;;;;;;;8.30;2.47;;;;;;;11.89;70.26;97509.75;4344290;80;21154;-92
2021/01/22 10:46:34;;;;;;;6.92;2.30;;;;;;;11.35;69.21;97500.66;4351679;80;21155;-92
2021/01/22 10:52:35;;;;;;;9.03;3.40;;;;;;;10.59;65.74;97498.02;4358775;80;21133;-92
2021/01/22 10:58:40;;;;;;;4.47;2.60;;;;;;;10.33;64.25;97489.76;4347230;80;21178;-93
2021/01/22 11:04:42;;;;;;;5.05;1.72;;;;;;;10.09;64.02;97481.23;4360156;80;21163;-92
2021/01/22 11:10:43;;;;;;;6.78;2.25;;;;;;;9.90;64.56;97469.52;4351343;80;21167;-91
2021/01/22 11:16:45;;;;;;;4.78;2.00;;;;;;;9.69;65.38;97468.36;4353120;80;21137;-94
2021/01/22 11:22:47;;;;;;;8.15;2.17;;;;;;;9.49;66.32;97466.77;4348330;80;21708;-94
2021/01/22 11:28:48;;;;;;;5.72;2.12;;;;;;;9.29;67.42;97455.64;4363029;80;21141;-90
2021/01/22 11:34:49;;;;;;;9.75;2.62;;;;;;;9.03;67.37;97448.06;4351506;80;21747;-91
2021/01/22 11:40:51;;;;;;;5.55;3.00;;;;;;;8.93;68.03;97433.89;4387234;80;21128;-93
2021/01/22 11:46:52;;;;;;;5.85;2.10;;;;;;;8.91;68.63;97428.66;4387819;80;21144;-92
2021/01/22 11:52:54;;;;;;;8.90;3.80;;;;;;;8.86;69.26;97432.59;4389128;80;21170;-92
2021/01/22 11:58:56;;;;;;;6.17;3.58;;;;;;;8.68;69.39;97431.14;4357586;80;21195;-92
2021/01/22 12:04:57;;;;;;;11.35;3.83;;;;;;;8.67;70.01;97423.56;4350560;81;21143;-92
2021/01/22 12:10:59;;;;;;;6.17;2.92;;;;;;;8.65;70.14;97414.20;4350375;80;21157;-92
2021/01/22 12:17:00;;;;;;;7.35;3.12;;;;;;;8.77;70.52;97412.39;4353278;81;21138;-92
2021/01/22 12:23:02;;;;;;;6.40;3.90;;;;;;;8.71;70.35;97403.05;4356848;80;21174;-91
2021/01/22 12:29:04;;;;;;;6.95;3.22;;;;;;;8.40;70.70;97413.00;4394530;79;21719;-92
2021/01/22 12:35:07;;;;;;;7.00;3.10;;;;;;;8.20;71.06;97411.91;4397007;79;21206;-91
2021/01/22 12:41:08;;;;;;;6.50;2.87;;;;;;;8.16;71.58;97415.22;4385466;80;21619;-91
2021/01/22 12:47:10;;;;;;;6.35;2.70;;;;;;;7.96;71.52;97408.70;4364124;80;21151;-92
2021/01/22 12:53:11;;;;;;;18.62;7.35;;;;;;;8.08;72.24;97415.06;4393344;79;21177;-92
2021/01/22 12:59:13;;;;;;;61.37;20.12;;;;;;;8.17;72.28;97415.44;4380616;81;21144;-92
2021/01/22 13:05:15;;;;;;;191.65;61.10;;;;;;;8.20;71.90;97419.30;4390766;80;21627;-93
2021/01/22 13:11:16;;;;;;;217.50;70.50;;;;;;;8.26;72.66;97430.02;4389145;81;21162;-91
2021/01/22 13:17:18;;;;;;;202.38;66.53;;;;;;;8.16;72.38;97431.58;4385168;80;21181;-91
2021/01/22 13:23:19;;;;;;;242.95;72.87;;;;;;;7.86;72.59;97429.96;4393391;80;21631;-91
2021/01/22 13:29:21;;;;;;;26.17;11.35;;;;;;;7.52;73.06;97441.91;4385886;80;21196;-91
2021/01/22 13:35:22;;;;;;;11.38;6.05;;;;;;;7.54;74.42;97449.10;4379883;80;21173;-91
2021/01/22 13:41:24;;;;;;;13.08;5.83;;;;;;;7.83;75.10;97445.70;4382782;80;21202;-91
2021/01/22 13:47:26;;;;;;;9.80;4.53;;;;;;;7.76;75.27;97449.83;4383817;80;21177;-91
2021/01/22 13:53:27;;;;;;;5.87;3.20;;;;;;;7.70;77.00;97442.66;4392295;79;21168;-91
2021/01/22 13:59:29;;;;;;;6.80;2.85;;;;;;;7.69;76.83;97462.87;4391617;79;21375;-91
2021/01/22 14:05:31;;;;;;;4.53;1.92;;;;;;;7.83;75.37;97472.38;4390875;80;21881;-92
2021/01/22 14:11:32;;;;;;;3.10;1.82;;;;;;;7.79;75.19;97463.45;4397162;80;21178;-92
2021/01/22 14:17:34;;;;;;;3.55;1.98;;;;;;;7.76;75.30;97459.36;4381831;81;21634;-93
2021/01/22 14:23:36;;;;;;;3.75;1.98;;;;;;;7.48;75.42;97462.92;4398116;81;21180;-93
2021/01/22 14:29:37;;;;;;;3.55;1.80;;;;;;;7.45;75.44;97471.88;4360647;81;21147;-93
2021/01/22 14:35:39;;;;;;;6.03;2.98;;;;;;;7.14;75.51;97485.48;4375362;81;21178;-93
2021/01/22 14:41:40;;;;;;;6.67;3.10;;;;;;;7.13;76.00;97488.78;4357305;81;21161;-92
2021/01/22 14:47:42;;;;;;;6.25;3.52;;;;;;;6.98;76.17;97501.41;4337133;80;21736;-93
2021/01/22 14:53:43;;;;;;;17.70;9.15;;;;;;;6.86;76.71;97504.50;4346506;81;21146;-92
2021/01/22 14:59:45;;;;;;;19.40;10.18;;;;;;;6.68;77.42;97507.75;4326001;81;21209;-93
2021/01/22 15:05:46;;;;;;;15.90;8.35;;;;;;;6.40;77.49;97511.16;4347565;81;21597;-91
2021/01/22 15:11:48;;;;;;;79.03;56.60;;;;;;;6.11;79.55;97509.47;4346345;80;21173;-91
2021/01/22 15:17:49;;;;;;;65.08;38.17;;;;;;;5.92;79.82;97511.14;4366483;81;21580;-92
2021/01/22 15:23:51;;;;;;;46.92;26.15;;;;;;;5.90;79.78;97522.35;4353065;81;21162;-93
2021/01/22 15:29:53;;;;;;;28.60;15.63;;;;;;;5.86;80.31;97527.00;4384575;80;21158;-92
2021/01/22 15:35:55;;;;;;;37.73;18.70;;;;;;;5.74;80.53;97529.22;4380303;80;21141;-94
2021/01/22 15:41:56;;;;;;;63.75;35.00;;;;;;;5.61;80.81;97526.59;4376965;81;21197;-91
2021/01/22 15:47:58;;;;;;;154.00;75.65;;;;;;;5.54;81.13;97540.13;4390968;81;21131;-92
2021/01/22 15:53:59;;;;;;;107.45;53.20;;;;;;;5.47;80.98;97537.34;4385492;80;21157;-91
2021/01/22 16:00:09;;;;;;;137.77;60.67;;;;;;;5.34;81.31;97541.53;4401529;80;21618;-92
2021/01/22 16:06:09;;;;;;;102.30;45.58;;;;;;;5.18;81.29;97540.42;4379940;81;21449;-92
2021/01/22 16:12:11;;;;;;;51.10;26.65;;;;;;;5.11;81.72;97548.48;4387373;80;21165;-93
2021/01/22 16:18:12;;;;;;;55.25;28.70;;;;;;;4.81;81.29;97555.92;4389970;81;21550;-92
2021/01/22 16:24:14;;;;;;;86.90;46.40;;;;;;;4.62;82.40;97552.03;4380255;80;21161;-92
2021/01/22 16:30:16;;;;;;;80.20;41.83;;;;;;;4.57;82.66;97551.78;4389573;80;21152;-90
2021/01/22 16:36:17;;;;;;;178.65;92.30;;;;;;;4.57;82.90;97545.61;4381717;80;21236;-92
2021/01/22 16:42:19;;;;;;;134.78;68.10;;;;;;;4.53;82.78;97548.84;4390389;80;21609;-90
2021/01/22 16:48:20;;;;;;;150.27;83.45;;;;;;;4.54;83.15;97543.64;4385974;80;21177;-92
2021/01/22 16:54:22;;;;;;;88.62;50.00;;;;;;;4.46;83.16;97552.83;4380389;80;21852;-90
2021/01/22 17:00:23;;;;;;;110.37;61.65;;;;;;;4.37;83.15;97557.77;4304797;81;21676;-91
2021/01/22 17:06:25;;;;;;;89.87;43.52;;;;;;;4.33;83.26;97548.23;4301596;81;21173;-91
2021/01/22 17:12:26;;;;;;;64.35;34.70;;;;;;;4.26;83.57;97551.43;4333197;80;21167;-91
2021/01/22 17:18:30;;;;;;;70.90;34.43;;;;;;;4.17;83.63;97547.63;4351228;80;21165;-92
2021/01/22 17:24:31;;;;;;;65.65;33.25;;;;;;;4.05;83.83;97544.37;4214441;80;9999654;-90
2021/01/22 17:30:33;;;;;;;76.55;38.23;;;;;;;4.02;84.38;97532.92;4309023;81;21168;-90
2021/01/22 17:36:34;;;;;;;81.00;37.78;;;;;;;3.93;84.59;97510.16;4329725;80;21606;-90
2021/01/22 17:42:38;;;;;;;96.92;47.98;;;;;;;3.78;84.17;97507.07;4335543;80;21616;-91
2021/01/22 17:55:01;;;;;;;84.52;38.88;;;;;;;3.84;85.84;97511.02;4578626;76;23836;-88
2021/01/22 18:01:03;;;;;;;95.83;43.73;;;;;;;3.95;85.37;97507.88;4478640;78;21159;-87
2021/01/22 18:07:04;;;;;;;90.30;40.65;;;;;;;4.04;85.50;97504.31;4483108;78;21171;-90
2021/01/22 18:13:07;;;;;;;73.67;32.65;;;;;;;3.97;84.79;97506.16;4490211;78;21171;-90
2021/01/22 18:19:08;;;;;;;78.65;34.67;;;;;;;3.70;84.91;97503.27;4489461;78;21456;-90
2021/01/22 18:25:12;;;;;;;83.33;35.28;;;;;;;3.51;84.84;97493.34;4479525;78;22383;-92
2021/01/22 18:31:14;;;;;;;97.10;41.73;;;;;;;3.36;84.83;97501.05;4491397;78;21701;-90
2021/01/22 18:37:15;;;;;;;128.25;56.08;;;;;;;3.14;85.01;97499.94;4483942;78;21191;-90
2021/01/22 18:43:17;;;;;;;123.62;55.88;;;;;;;3.05;85.09;97506.73;4490270;78;21194;-92
2021/01/22 18:49:19;;;;;;;117.77;48.48;;;;;;;2.90;85.16;97512.47;4492661;77;21303;-90
2021/01/22 18:55:21;;;;;;;101.78;44.60;;;;;;;2.71;84.61;97512.51;4485461;78;21176;-91
2021/01/22 19:01:22;;;;;;;94.87;40.33;;;;;;;2.47;84.73;97526.36;4481574;78;21147;-90
2021/01/22 19:07:24;;;;;;;119.97;53.10;;;;;;;2.33;85.56;97527.99;4485848;78;21146;-90
2021/01/22 19:13:25;;;;;;;150.57;68.67;;;;;;;2.09;86.11;97529.62;4482358;78;21136;-91
2021/01/22 19:19:27;;;;;;;152.32;67.82;;;;;;;2.04;86.07;97506.95;4485337;78;21153;-91
2021/01/22 19:25:29;;;;;;;129.50;59.05;;;;;;;2.02;85.95;97521.39;4480449;78;21156;-89
2021/01/22 19:31:31;;;;;;;115.77;52.17;;;;;;;1.95;86.00;97519.88;4478433;78;21168;-90
2021/01/22 19:37:32;;;;;;;103.00;51.63;;;;;;;1.55;85.46;97508.81;4458325;78;21287;-88
2021/01/22 19:43:35;;;;;;;89.22;42.55;;;;;;;1.47;86.23;97502.28;4491099;78;21611;-88
2021/01/22 19:49:36;;;;;;;98.15;47.17;;;;;;;1.44;86.38;97492.95;4484982;78;21149;-89
2021/01/22 19:55:38;;;;;;;102.30;48.98;;;;;;;1.44;86.49;97490.84;4485602;78;21844;-90
2021/01/22 20:01:40;;;;;;;85.75;42.70;;;;;;;1.38;86.56;97501.11;4484665;78;22451;-89
2021/01/22 20:07:41;;;;;;;76.85;38.83;;;;;;;1.22;86.00;97502.27;4486993;78;21141;-89
2021/01/22 20:13:43;;;;;;;77.30;40.05;;;;;;;1.12;86.13;97506.28;4482311;78;21180;-89
2021/01/22 20:19:44;;;;;;;85.60;42.33;;;;;;;1.08;86.44;97501.94;4481997;78;21339;-88
2021/01/22 20:25:46;;;;;;;101.85;52.53;;;;;;;0.96;86.47;97496.62;4483890;78;21172;-88
2021/01/22 20:31:47;;;;;;;138.52;66.53;;;;;;;0.81;86.78;97471.27;4484019;78;21148;-88
2021/01/22 20:37:49;;;;;;;107.37;55.88;;;;;;;0.85;86.61;97486.94;4478146;78;21266;-88
2021/01/22 20:43:50;;;;;;;58.95;31.57;;;;;;;0.85;86.61;97486.94;4488654;78;21976;-88
2021/01/22 20:49:52;;;;;;;71.87;35.28;;;;;;;0.68;86.67;97487.84;4486945;78;21621;-88
2021/01/22 20:55:53;;;;;;;92.55;44.40;;;;;;;0.56;86.79;97488.72;4488894;78;21812;-87
2021/01/22 21:01:55;;;;;;;243.12;115.50;;;;;;;0.50;86.85;97479.30;4487717;78;21403;-88
2021/01/22 21:07:57;;;;;;;72.12;34.78;;;;;;;0.50;86.97;97477.20;4483053;78;21136;-89
2021/01/22 21:13:58;;;;;;;69.55;32.17;;;;;;;0.42;86.67;97474.09;4483876;78;21090;-88
2021/01/22 21:20:00;;;;;;;57.25;27.62;;;;;;;0.29;86.72;97463.96;4480356;78;21394;-88
2021/01/22 21:26:01;;;;;;;165.25;76.42;;;;;;;0.12;86.59;97462.93;4481237;78;21278;-88
2021/01/22 21:32:04;;;;;;;94.17;43.87;;;;;;;0.12;87.13;97466.17;4485579;78;21672;-87
2021/01/22 21:38:05;;;;;;;100.50;45.23;;;;;;;0.14;87.26;97470.66;4485180;78;21981;-87
2021/01/22 21:44:07;;;;;;;101.75;51.50;;;;;;;-0.07;87.68;97448.78;4489172;78;21585;-88
2021/01/22 21:50:09;;;;;;;65.97;31.80;;;;;;;-0.07;87.68;97448.78;4486544;78;21149;-87
2021/01/22 21:56:13;;;;;;;69.07;33.45;;;;;;;-0.05;87.40;97471.30;4490244;78;21153;-87
2021/01/22 22:02:14;;;;;;;61.33;31.33;;;;;;;-0.04;87.64;97454.81;4487532;78;21574;-87
2021/01/22 22:08:16;;;;;;;60.55;30.92;;;;;;;-0.05;88.07;97453.23;4488677;78;21157;-87
2021/01/22 22:14:18;;;;;;;61.35;30.85;;;;;;;-0.01;87.71;97453.34;4486097;78;21669;-87
2021/01/22 22:20:19;;;;;;;62.00;29.72;;;;;;;0.00;88.03;97467.79;4491301;78;21172;-88
2021/01/22 22:26:21;;;;;;;67.90;35.03;;;;;;;0.12;88.07;97468.31;4490698;78;21160;-87
2021/01/22 22:32:22;;;;;;;64.85;32.33;;;;;;;0.11;88.21;97454.62;4492881;78;21633;-87
2021/01/22 22:38:24;;;;;;;66.05;34.25;;;;;;;0.11;87.97;97447.13;4488286;78;21180;-87
2021/01/22 22:44:25;;;;;;;66.72;33.58;;;;;;;0.10;88.70;97466.52;4496286;78;21209;-87
2021/01/22 22:50:27;;;;;;;73.90;35.60;;;;;;;0.18;88.72;97460.20;4484901;78;21140;-87
2021/01/22 22:56:29;;;;;;;80.17;39.92;;;;;;;0.22;88.35;97434.73;4484344;78;21601;-87
2021/01/22 23:02:30;;;;;;;91.05;44.77;;;;;;;0.29;88.77;97435.70;4493175;78;21185;-87
2021/01/22 23:08:37;;;;;;;110.78;49.38;;;;;;;0.31;88.67;97451.50;4491483;78;21635;-88
2021/01/22 23:14:41;;;;;;;120.70;56.23;;;;;;;0.35;89.05;97446.42;4460054;78;21128;-88
2021/01/22 23:20:42;;;;;;;105.63;52.00;;;;;;;0.38;89.15;97445.73;4491361;78;21124;-87
2021/01/22 23:26:44;;;;;;;99.97;44.85;;;;;;;0.31;88.99;97438.05;4481880;78;21132;-87
2021/01/22 23:32:47;;;;;;;85.32;40.50;;;;;;;0.28;89.33;97438.19;4490752;78;21582;-86
2021/01/22 23:38:49;;;;;;;94.45;43.40;;;;;;;0.29;89.05;97450.50;4486462;78;21145;-87
2021/01/22 23:44:51;;;;;;;83.30;38.88;;;;;;;0.24;88.91;97439.98;4484707;78;21125;-87
2021/01/22 23:50:52;;;;;;;90.65;41.37;;;;;;;0.16;88.88;97442.84;4484285;78;21136;-87
2021/01/22 23:56:54;;;;;;;71.95;37.25;;;;;;;0.14;89.31;97450.48;4448926;78;21737;-87
